Portada
METAR-TAF:

METAR-TAF

Aeropuertos :

Zaragoza, España

Aeropuerto de Zaragoza

latitud: 41-40N, longitud: 001-01W, altitud: 263 m

Observación

El informe se hizo hace 20 minutos, a las 20:30 UTC
Viento 16 kt del oeste
Temperatura 13°C
Humedad 72%
Presión 1027 hPa
Visibilidad 10 km o más
Escasas nubes a una altura de 4500 ft

METAR: LEZG 222030Z 28016KT 9999 FEW045 13/08 Q1027

Hora: 22:50 (20:50 UTC)

Pronóstico

El informe se hizo hace 3 horas y 50 minutos, a las 17:00 UTC
Pronóstico válido del 22 a las 18 UTC al 23 a las 18 UTC
Viento 15 kt del oeste-noroeste
Visibilidad 10 km o más
Escasas nubes a una altura de 4500 ft
Probabilidad 40% :
Temporalmente
del 23 a las 10 UTC al 23 a las 18 UTC
Viento 20 kt del oeste-noroeste con ráfagas de 30 kt

TAF: LEZG 221700Z 2218/2318 30015KT 9999 FEW045 TX21/2313Z TN09/2306Z PROB40 TEMPO 2310/2318 30020G30KT

Observaciones y pronósticos meteorológicos de más de 4000 aeropuertos (mensajes METAR y TAF).

Los puntos amarillos y rojos representan las estaciones disponibles.

Ponga el ratón en el punto deseado para ver el nombre de la estación.

Haga clic para ver las observaciones y los pronósticos meteorológicos.

Para cambiar el mapa : haga clic en los botones verdes con una cruz de color negro para hacer un zoom, en el botón verde con un guión para alejar o en las flechas verdes para mapas adyacentes.


METAR-TAF: